Time;durP1;ratioP1;P1;durP2;ratioP2;P2;SDS_P1;SDS_P2;PMS_P1;PMS_P2;Temp;Humidity;BMP_temperature;BMP_pressure;BME280_temperature;BME280_humidity;BME280_pressure;Samples;Min_cycle;Max_cycle;Signal;HPM_P1;HPM_P2
2021/05/08 00:02:04;;;;;;;12.60;3.33;;;16.30;87.30;;;;;;5085741;28;20252;-70
2021/05/08 00:04:31;;;;;;;8.03;3.00;;;16.30;88.30;;;;;;5082074;28;20209;-70
2021/05/08 00:06:59;;;;;;;10.93;3.37;;;16.20;88.40;;;;;;5084638;28;20325;-70
2021/05/08 00:09:27;;;;;;;14.00;4.03;;;16.20;88.80;;;;;;5081047;28;20633;-70
2021/05/08 00:11:55;;;;;;;11.97;3.40;;;16.20;89.10;;;;;;5084228;28;20303;-70
2021/05/08 00:14:25;;;;;;;14.73;4.47;;;16.20;89.40;;;;;;5077862;28;20213;-70
2021/05/08 00:16:52;;;;;;;17.10;3.90;;;16.20;89.70;;;;;;5078642;28;20267;-70
2021/05/08 00:19:21;;;;;;;17.63;3.43;;;16.20;90.30;;;;;;5084549;28;20201;-70
2021/05/08 00:21:49;;;;;;;15.93;3.97;;;16.20;90.10;;;;;;5082975;28;20237;-70
2021/05/08 00:24:15;;;;;;;20.23;3.13;;;16.10;90.10;;;;;;5081540;28;20232;-70
2021/05/08 00:26:42;;;;;;;18.97;3.30;;;16.10;90.00;;;;;;5082084;28;20248;-70
2021/05/08 00:29:09;;;;;;;13.23;2.70;;;16.10;89.80;;;;;;5083291;28;20247;-70
2021/05/08 00:31:37;;;;;;;15.57;2.73;;;16.10;89.20;;;;;;5082148;28;20687;-70
2021/05/08 00:34:04;;;;;;;13.60;3.10;;;16.10;88.70;;;;;;5084577;28;20604;-70
2021/05/08 00:36:31;;;;;;;15.53;3.00;;;16.10;88.10;;;;;;5082541;28;20237;-70
2021/05/08 00:38:57;;;;;;;12.00;2.13;;;16.00;87.60;;;;;;5088005;28;20251;-70
2021/05/08 00:41:24;;;;;;;14.87;3.00;;;16.00;87.30;;;;;;5081905;28;20232;-70
2021/05/08 00:43:58;;;;;;;11.80;2.40;;;15.90;87.00;;;;;;5084245;28;20379;-70
2021/05/08 00:46:26;;;;;;;18.57;2.33;;;16.00;86.90;;;;;;5082427;28;21143;-70
2021/05/08 00:48:56;;;;;;;10.27;2.20;;;15.90;86.50;;;;;;5082276;28;20271;-70
2021/05/08 00:51:23;;;;;;;10.83;2.23;;;15.90;86.50;;;;;;5084103;28;20277;-70
2021/05/08 00:53:50;;;;;;;12.13;2.57;;;15.80;86.40;;;;;;5082051;28;20557;-70
2021/05/08 00:56:17;;;;;;;15.27;2.13;;;15.80;86.30;;;;;;5080854;28;20216;-70
2021/05/08 00:58:45;;;;;;;11.90;2.90;;;15.80;86.00;;;;;;5083288;28;20221;-70
2021/05/08 01:01:11;;;;;;;14.93;2.07;;;15.80;85.80;;;;;;5082507;28;20692;-70
2021/05/08 01:03:39;;;;;;;10.67;2.40;;;15.70;85.70;;;;;;5082798;28;20209;-70
2021/05/08 01:06:07;;;;;;;13.13;2.83;;;15.70;85.70;;;;;;5082674;28;20232;-70
2021/05/08 01:08:34;;;;;;;10.83;1.63;;;15.60;85.50;;;;;;5082764;28;20205;-70
2021/05/08 01:11:01;;;;;;;10.10;2.57;;;15.60;85.60;;;;;;5081575;28;20590;-70
2021/05/08 01:13:28;;;;;;;7.40;2.33;;;15.50;85.70;;;;;;5082556;28;20660;-70
2021/05/08 01:15:55;;;;;;;11.10;2.30;;;15.40;85.80;;;;;;5083227;28;20305;-70
2021/05/08 01:18:22;;;;;;;9.70;2.67;;;15.40;86.00;;;;;;5080140;28;20863;-70
2021/05/08 01:20:50;;;;;;;10.37;1.87;;;15.20;86.10;;;;;;5084100;28;20587;-70
2021/05/08 01:23:18;;;;;;;10.40;1.73;;;15.20;86.20;;;;;;5082443;28;20213;-70
2021/05/08 01:25:45;;;;;;;12.13;2.20;;;15.20;86.30;;;;;;5080577;28;20209;-70
2021/05/08 01:28:12;;;;;;;9.37;1.50;;;15.10;86.40;;;;;;5081803;28;20248;-70
2021/05/08 01:30:39;;;;;;;24.30;2.93;;;15.10;86.50;;;;;;5082603;28;20266;-70
2021/05/08 01:33:07;;;;;;;7.27;1.73;;;15.10;86.50;;;;;;5081958;28;20217;-70
2021/05/08 01:35:35;;;;;;;9.03;1.80;;;15.10;86.60;;;;;;5088038;28;20201;-70
2021/05/08 01:38:02;;;;;;;10.97;1.70;;;15.10;86.70;;;;;;5085884;28;20227;-70
2021/05/08 01:40:32;;;;;;;8.63;1.93;;;15.10;86.90;;;;;;5082845;28;20923;-70
2021/05/08 01:42:59;;;;;;;10.17;2.20;;;15.10;87.10;;;;;;5081702;28;20233;-70
2021/05/08 01:45:26;;;;;;;9.13;2.03;;;15.00;87.30;;;;;;5081680;28;20741;-70
2021/05/08 01:47:57;;;;;;;6.07;2.10;;;15.00;87.50;;;;;;5082717;28;20300;-70
2021/05/08 01:50:25;;;;;;;9.40;2.37;;;15.00;87.70;;;;;;5080408;28;20649;-70
2021/05/08 01:52:53;;;;;;;10.50;2.07;;;15.00;87.90;;;;;;5082791;28;20221;-70
2021/05/08 01:55:22;;;;;;;7.63;2.27;;;15.00;88.00;;;;;;5079641;28;20263;-70
2021/05/08 01:57:52;;;;;;;13.20;2.20;;;14.90;88.00;;;;;;5081333;28;20221;-70
2021/05/08 02:00:27;;;;;;;13.17;2.53;;;14.80;88.20;;;;;;5083193;28;20615;-70
2021/05/08 02:02:55;;;;;;;6.33;2.03;;;14.80;88.40;;;;;;5059130;28;20630;-70
2021/05/08 02:05:23;;;;;;;5.57;1.70;;;14.80;88.40;;;;;;5079283;28;20638;-70
2021/05/08 02:07:50;;;;;;;4.00;1.37;;;14.80;88.40;;;;;;5082908;28;20320;-70
2021/05/08 02:10:17;;;;;;;7.03;1.50;;;14.90;88.30;;;;;;5080088;28;20216;-70
2021/05/08 02:12:44;;;;;;;5.07;1.53;;;14.90;88.10;;;;;;5083418;28;20209;-70
2021/05/08 02:15:13;;;;;;;6.67;1.70;;;14.90;88.00;;;;;;5078927;28;20214;-70
2021/05/08 02:17:40;;;;;;;8.00;1.30;;;15.00;87.90;;;;;;5081249;28;20626;-70
2021/05/08 02:20:15;;;;;;;9.27;1.60;;;14.90;87.70;;;;;;5080031;28;20689;-70
2021/05/08 02:22:43;;;;;;;7.77;1.57;;;15.00;87.60;;;;;;5082898;28;20637;-70
2021/05/08 02:25:12;;;;;;;7.20;1.40;;;15.00;87.40;;;;;;5080624;28;20262;-70
2021/05/08 02:27:40;;;;;;;14.53;2.00;;;15.00;87.10;;;;;;5082478;28;20320;-70
2021/05/08 02:30:33;;;;;;;7.77;1.20;;;15.00;87.00;;;;;;5089618;28;20263;-70
2021/05/08 02:33:01;;;;;;;8.43;2.03;;;15.00;86.90;;;;;;5083803;28;20210;-70
2021/05/08 02:35:28;;;;;;;9.00;1.97;;;15.00;86.70;;;;;;5091420;28;20232;-69
2021/05/08 02:37:57;;;;;;;10.63;1.97;;;15.00;86.50;;;;;;5086681;28;20228;-69
2021/05/08 02:40:32;;;;;;;5.03;1.53;;;15.00;86.40;;;;;;5087423;28;20205;-69
2021/05/08 02:42:59;;;;;;;5.70;1.27;;;15.00;86.20;;;;;;5088983;28;20216;-69
2021/05/08 02:45:26;;;;;;;13.03;1.63;;;15.00;85.90;;;;;;5088063;28;20214;-69
2021/05/08 02:47:53;;;;;;;7.70;1.17;;;15.00;85.80;;;;;;5084990;28;20237;-70
2021/05/08 02:50:21;;;;;;;9.83;1.67;;;15.00;85.60;;;;;;5089352;28;20629;-70
2021/05/08 02:52:51;;;;;;;6.33;1.60;;;14.90;85.40;;;;;;5089370;28;20238;-70
2021/05/08 02:55:18;;;;;;;8.20;1.60;;;14.90;85.40;;;;;;5085080;28;20610;-70
2021/05/08 02:57:45;;;;;;;3.33;1.00;;;14.80;85.40;;;;;;5089510;28;20215;-70
2021/05/08 03:00:15;;;;;;;6.17;1.37;;;14.80;85.40;;;;;;5088638;28;20221;-70
2021/05/08 03:02:43;;;;;;;4.63;1.40;;;14.80;85.20;;;;;;5092014;28;20213;-70
2021/05/08 03:05:10;;;;;;;10.37;1.67;;;14.80;85.20;;;;;;5088242;28;20304;-70
2021/05/08 03:07:37;;;;;;;8.93;1.30;;;14.80;85.10;;;;;;5091884;28;20233;-70
2021/05/08 03:10:08;;;;;;;8.00;2.17;;;14.80;84.70;;;;;;5089145;28;20210;-70
2021/05/08 03:12:35;;;;;;;5.97;1.07;;;14.80;84.60;;;;;;5092217;28;20722;-70
2021/05/08 03:15:04;;;;;;;2.63;0.90;;;14.80;84.50;;;;;;5087675;28;20213;-70
2021/05/08 03:17:30;;;;;;;5.73;1.10;;;14.80;84.20;;;;;;5084581;28;20271;-70
2021/05/08 03:19:58;;;;;;;5.50;1.30;;;14.90;84.80;;;;;;5084245;28;20250;-70
2021/05/08 03:22:25;;;;;;;4.30;1.10;;;14.90;83.80;;;;;;5081647;28;20220;-70
2021/05/08 03:24:53;;;;;;;5.23;1.03;;;14.90;83.60;;;;;;5079478;28;20210;-70
2021/05/08 03:27:20;;;;;;;3.10;0.90;;;14.90;83.60;;;;;;5078256;28;20322;-70
2021/05/08 03:29:47;;;;;;;5.97;1.07;;;14.90;82.80;;;;;;5078250;28;20296;-70
2021/05/08 03:32:14;;;;;;;5.47;1.20;;;14.90;82.40;;;;;;5078976;28;20601;-70
2021/05/08 03:34:40;;;;;;;1.90;0.50;;;14.90;81.90;;;;;;5084929;28;20218;-70
2021/05/08 03:37:07;;;;;;;1.97;0.63;;;15.00;81.30;;;;;;5085506;28;20550;-70
2021/05/08 03:39:34;;;;;;;1.03;0.50;;;15.00;80.90;;;;;;5082769;28;20218;-70
2021/05/08 03:42:01;;;;;;;3.07;0.60;;;15.00;80.20;;;;;;5085636;28;20244;-70
2021/05/08 03:44:28;;;;;;;4.33;0.70;;;15.00;79.50;;;;;;5083960;28;20611;-70
2021/05/08 03:46:55;;;;;;;4.27;1.00;;;15.00;79.30;;;;;;5085253;28;20279;-70
2021/05/08 03:49:22;;;;;;;3.90;0.73;;;15.00;79.10;;;;;;5081566;28;20221;-70
2021/05/08 03:51:51;;;;;;;3.17;0.70;;;15.00;78.90;;;;;;5086167;28;20296;-70
2021/05/08 03:54:17;;;;;;;7.13;1.80;;;14.90;78.70;;;;;;5083714;28;20502;-70
2021/05/08 03:56:44;;;;;;;3.17;0.80;;;14.90;78.70;;;;;;5080942;28;20245;-70
2021/05/08 03:59:11;;;;;;;6.93;0.97;;;14.90;79.20;;;;;;5085267;28;20220;-70
2021/05/08 04:01:38;;;;;;;2.37;0.90;;;14.80;79.70;;;;;;5082740;28;20213;-70
2021/05/08 04:04:04;;;;;;;4.87;1.33;;;14.70;80.20;;;;;;5084053;28;20286;-70
2021/05/08 04:06:31;;;;;;;6.40;1.00;;;14.70;81.00;;;;;;5083672;28;20222;-70
2021/05/08 04:08:58;;;;;;;1.53;1.00;;;14.60;81.50;;;;;;5083240;28;20228;-70
2021/05/08 04:11:24;;;;;;;3.97;1.20;;;14.50;82.10;;;;;;5083084;28;20217;-70
2021/05/08 04:13:51;;;;;;;3.97;1.97;;;14.40;82.70;;;;;;5085506;28;20214;-70
2021/05/08 04:16:19;;;;;;;3.70;1.57;;;14.40;83.30;;;;;;5083421;28;20296;-70
2021/05/08 04:18:45;;;;;;;5.13;1.80;;;14.40;83.80;;;;;;5085006;28;20605;-70
2021/05/08 04:21:12;;;;;;;8.57;1.97;;;14.30;84.10;;;;;;5087191;28;20310;-70
2021/05/08 04:23:39;;;;;;;7.63;1.80;;;14.20;84.40;;;;;;5085487;28;20209;-70
2021/05/08 04:26:06;;;;;;;8.30;1.70;;;14.20;84.60;;;;;;5082880;28;20249;-70
2021/05/08 04:28:32;;;;;;;3.93;2.23;;;14.10;84.70;;;;;;5084817;28;20852;-70
2021/05/08 04:30:59;;;;;;;4.40;2.20;;;14.10;84.90;;;;;;5085992;28;20217;-70
2021/05/08 04:33:25;;;;;;;6.07;1.60;;;14.10;84.70;;;;;;5085843;28;20553;-70
2021/05/08 04:35:52;;;;;;;4.87;2.07;;;14.00;84.50;;;;;;5086914;28;20241;-70
2021/05/08 04:38:19;;;;;;;4.20;2.07;;;14.00;84.40;;;;;;5086340;28;20224;-70
2021/05/08 04:40:45;;;;;;;3.63;1.60;;;14.00;84.20;;;;;;5084821;28;20209;-70
2021/05/08 04:43:12;;;;;;;5.20;1.97;;;14.00;83.90;;;;;;5085541;28;20271;-70
2021/05/08 04:45:39;;;;;;;2.60;1.10;;;14.00;83.40;;;;;;5084945;28;20224;-70
2021/05/08 04:48:05;;;;;;;4.70;1.50;;;14.00;82.30;;;;;;5084167;28;20245;-70
2021/05/08 04:50:32;;;;;;;4.70;1.50;;;14.00;82.40;;;;;;5086017;28;20225;-70
2021/05/08 04:52:59;;;;;;;1.70;1.50;;;14.00;81.90;;;;;;5085648;28;20641;-70
2021/05/08 04:55:25;;;;;;;2.07;1.00;;;14.10;81.70;;;;;;5082305;28;20694;-70
2021/05/08 04:57:52;;;;;;;2.60;1.33;;;14.10;81.60;;;;;;5082740;28;20210;-70
2021/05/08 05:00:19;;;;;;;3.23;1.40;;;14.20;80.80;;;;;;5084360;28;20216;-70
2021/05/08 05:02:47;;;;;;;3.20;1.53;;;14.10;80.40;;;;;;5082686;28;20206;-70
2021/05/08 05:05:18;;;;;;;4.40;1.20;;;14.10;80.50;;;;;;5081560;28;20485;-70
2021/05/08 05:07:47;;;;;;;3.00;1.20;;;14.20;80.50;;;;;;5083610;28;20323;-70
2021/05/08 05:10:14;;;;;;;3.60;1.13;;;14.20;79.90;;;;;;5082254;28;20205;-70
2021/05/08 05:12:44;;;;;;;1.67;1.00;;;14.20;79.90;;;;;;5082966;28;20290;-70
2021/05/08 05:15:11;;;;;;;4.67;1.43;;;14.20;79.70;;;;;;5082305;28;20209;-70
2021/05/08 05:17:37;;;;;;;3.87;1.40;;;14.30;79.60;;;;;;5083124;28;20213;-70
2021/05/08 05:20:05;;;;;;;2.23;1.03;;;14.40;79.10;;;;;;5082995;28;20238;-70
2021/05/08 05:22:33;;;;;;;5.43;1.37;;;14.50;78.70;;;;;;5084533;28;20277;-70
2021/05/08 05:24:59;;;;;;;2.30;1.13;;;14.60;77.90;;;;;;5080424;28;20213;-70
2021/05/08 05:27:26;;;;;;;1.40;1.10;;;14.80;77.20;;;;;;5082754;28;20236;-70
2021/05/08 05:29:54;;;;;;;4.93;1.10;;;15.00;76.60;;;;;;5081969;28;20205;-70
2021/05/08 05:32:21;;;;;;;3.13;1.17;;;15.10;75.80;;;;;;5083222;28;20215;-70
2021/05/08 05:34:48;;;;;;;3.83;1.57;;;15.30;75.10;;;;;;5084254;28;20205;-70
2021/05/08 05:37:15;;;;;;;2.93;1.10;;;15.40;75.60;;;;;;5082916;28;20625;-70
2021/05/08 05:39:41;;;;;;;2.43;1.20;;;15.50;74.80;;;;;;5082290;28;20256;-70
2021/05/08 05:42:08;;;;;;;2.90;1.00;;;15.50;75.00;;;;;;5084412;28;20216;-70
2021/05/08 05:44:35;;;;;;;4.33;1.10;;;15.50;75.10;;;;;;5082079;28;20669;-70
2021/05/08 05:47:01;;;;;;;3.43;1.30;;;15.50;75.00;;;;;;5081911;28;20462;-70
2021/05/08 05:49:28;;;;;;;9.83;1.50;;;15.60;75.00;;;;;;5081883;28;20355;-70
2021/05/08 05:51:55;;;;;;;4.13;1.20;;;15.60;74.40;;;;;;5084300;28;20209;-70
2021/05/08 05:54:21;;;;;;;3.23;1.27;;;15.60;73.90;;;;;;5081900;28;20205;-70
2021/05/08 05:56:48;;;;;;;2.13;1.13;;;15.60;74.40;;;;;;5080406;28;20680;-70
2021/05/08 05:59:15;;;;;;;3.73;1.73;;;15.50;74.30;;;;;;5083010;28;20248;-70
2021/05/08 06:01:41;;;;;;;2.47;1.10;;;15.50;74.50;;;;;;5081273;28;20214;-70
2021/05/08 06:04:08;;;;;;;1.73;1.13;;;15.40;74.90;;;;;;5078091;28;20217;-70
2021/05/08 06:06:35;;;;;;;3.10;1.10;;;15.40;74.90;;;;;;5083140;28;20213;-71
2021/05/08 06:09:02;;;;;;;1.80;0.97;;;15.50;75.20;;;;;;5079750;28;20206;-70
2021/05/08 06:11:28;;;;;;;5.50;1.40;;;15.50;75.10;;;;;;5082595;28;20728;-70
2021/05/08 06:13:55;;;;;;;1.70;1.00;;;15.60;75.00;;;;;;5080579;28;20547;-70
2021/05/08 06:16:21;;;;;;;2.57;1.03;;;15.70;74.70;;;;;;5083748;28;20258;-70
2021/05/08 06:18:48;;;;;;;4.07;1.20;;;15.70;74.20;;;;;;5079998;28;20222;-70
2021/05/08 06:21:16;;;;;;;2.43;1.20;;;15.80;73.70;;;;;;5084486;28;20241;-70
2021/05/08 06:23:42;;;;;;;3.67;1.20;;;15.90;73.70;;;;;;5079849;28;20626;-70
2021/05/08 06:26:09;;;;;;;1.90;1.10;;;16.00;73.70;;;;;;5083776;28;20209;-70
2021/05/08 06:28:36;;;;;;;1.77;0.97;;;16.10;73.10;;;;;;5075883;28;20654;-70
2021/05/08 06:31:02;;;;;;;2.37;1.30;;;16.10;72.00;;;;;;5079049;28;20197;-70
2021/05/08 06:33:29;;;;;;;3.43;1.67;;;16.10;72.60;;;;;;5078826;28;20656;-70
2021/05/08 06:35:55;;;;;;;8.47;1.27;;;16.10;72.70;;;;;;5087184;28;20652;-70
2021/05/08 06:38:23;;;;;;;1.50;1.00;;;16.10;72.40;;;;;;5088548;28;20296;-70
2021/05/08 06:40:49;;;;;;;2.77;1.07;;;16.10;72.70;;;;;;5083552;28;20229;-70
2021/05/08 06:43:16;;;;;;;2.53;0.80;;;16.10;73.20;;;;;;5086325;28;20546;-71
2021/05/08 06:45:43;;;;;;;4.63;1.20;;;16.10;72.60;;;;;;5083275;28;20547;-70
2021/05/08 06:48:10;;;;;;;1.87;0.90;;;16.10;71.80;;;;;;5085928;28;20240;-70
2021/05/08 06:50:36;;;;;;;1.27;0.70;;;16.10;72.20;;;;;;5084151;28;20225;-70
2021/05/08 06:53:03;;;;;;;1.83;1.17;;;16.10;72.00;;;;;;5086469;28;20341;-70
2021/05/08 06:55:30;;;;;;;3.47;1.10;;;16.20;72.10;;;;;;5082365;28;20240;-70
2021/05/08 06:57:57;;;;;;;1.17;1.03;;;16.20;72.20;;;;;;5086288;28;20219;-70
2021/05/08 07:00:24;;;;;;;2.23;1.07;;;16.20;72.40;;;;;;5086908;28;20213;-70
2021/05/08 07:02:51;;;;;;;4.43;0.90;;;16.30;72.40;;;;;;5079455;28;20728;-70
2021/05/08 07:05:18;;;;;;;2.43;0.80;;;16.30;72.20;;;;;;5082796;28;20645;-70
2021/05/08 07:07:45;;;;;;;2.00;1.30;;;16.40;72.00;;;;;;5084127;28;20668;-70
2021/05/08 07:10:12;;;;;;;6.57;1.90;;;16.50;71.40;;;;;;5083503;28;20296;-70
2021/05/08 07:12:39;;;;;;;2.13;0.83;;;16.50;72.20;;;;;;5084239;28;20226;-70
2021/05/08 07:15:06;;;;;;;2.47;0.93;;;16.70;72.00;;;;;;5083879;28;20228;-70
2021/05/08 07:17:33;;;;;;;1.03;0.90;;;16.80;71.50;;;;;;5085266;28;20232;-70
2021/05/08 07:20:01;;;;;;;5.70;1.70;;;16.90;71.90;;;;;;5083421;28;20241;-70
2021/05/08 07:22:27;;;;;;;4.17;1.17;;;17.00;71.30;;;;;;5086288;28;20205;-70
2021/05/08 07:24:55;;;;;;;3.17;0.93;;;17.10;71.50;;;;;;5084136;28;20214;-71
2021/05/08 07:27:22;;;;;;;3.50;1.30;;;17.20;70.50;;;;;;5083766;28;20241;-71
2021/05/08 07:29:50;;;;;;;4.30;1.43;;;17.20;70.60;;;;;;5085068;28;20691;-71
2021/05/08 07:32:16;;;;;;;4.30;1.27;;;17.30;70.80;;;;;;5082312;28;20205;-71
2021/05/08 07:34:43;;;;;;;3.37;1.10;;;17.40;70.40;;;;;;5079825;28;20244;-71
2021/05/08 07:37:10;;;;;;;4.40;1.10;;;17.50;70.30;;;;;;5083887;28;20297;-71
2021/05/08 07:39:37;;;;;;;2.10;0.87;;;17.60;69.70;;;;;;5084493;28;20710;-71
2021/05/08 07:42:04;;;;;;;1.57;1.00;;;17.60;69.60;;;;;;5084009;28;20240;-71
2021/05/08 07:44:30;;;;;;;2.00;0.90;;;17.70;68.60;;;;;;5082561;28;20218;-71
2021/05/08 07:46:58;;;;;;;2.40;0.67;;;17.70;68.20;;;;;;5083887;28;20273;-71
2021/05/08 07:49:25;;;;;;;4.33;0.90;;;17.80;67.80;;;;;;5083522;28;20217;-71
2021/05/08 07:51:51;;;;;;;9.63;0.90;;;17.90;67.60;;;;;;5086035;28;20213;-71
2021/05/08 07:54:18;;;;;;;1.90;0.77;;;18.00;67.80;;;;;;5083347;28;20228;-71
2021/05/08 07:56:45;;;;;;;2.93;1.00;;;18.10;67.50;;;;;;5083133;28;20279;-71
2021/05/08 07:59:11;;;;;;;1.13;0.80;;;18.10;66.50;;;;;;5084251;28;20248;-71
2021/05/08 08:01:38;;;;;;;1.23;0.70;;;18.30;66.00;;;;;;5083597;28;20300;-71
2021/05/08 08:04:06;;;;;;;2.77;0.60;;;18.40;65.30;;;;;;5079665;28;20237;-71
2021/05/08 08:06:32;;;;;;;1.97;0.40;;;18.50;63.40;;;;;;5084901;28;20304;-71
2021/05/08 08:08:59;;;;;;;1.13;0.77;;;18.50;63.50;;;;;;5077178;28;20260;-71
2021/05/08 08:11:25;;;;;;;1.70;0.40;;;18.60;63.30;;;;;;5086917;28;20232;-71
2021/05/08 08:13:52;;;;;;;1.20;0.60;;;18.50;62.80;;;;;;5085386;28;20213;-71
2021/05/08 08:16:19;;;;;;;1.60;0.70;;;18.40;62.40;;;;;;5083295;28;20292;-71
2021/05/08 08:18:45;;;;;;;3.03;0.70;;;18.40;63.30;;;;;;5085923;28;20217;-71
2021/05/08 08:21:13;;;;;;;1.07;0.70;;;18.30;62.80;;;;;;5082099;28;20332;-71
2021/05/08 08:23:40;;;;;;;2.10;0.50;;;18.30;62.70;;;;;;5083668;28;20653;-71
2021/05/08 08:26:07;;;;;;;1.87;0.67;;;18.30;62.30;;;;;;5085736;28;20278;-71
2021/05/08 08:28:34;;;;;;;3.40;1.03;;;18.40;62.40;;;;;;5082432;28;20265;-71
2021/05/08 08:31:00;;;;;;;1.73;0.57;;;18.40;62.80;;;;;;5084344;28;20460;-71
2021/05/08 08:33:27;;;;;;;1.50;0.87;;;18.60;62.60;;;;;;5077623;28;20202;-71
2021/05/08 08:35:54;;;;;;;4.93;0.60;;;18.80;61.70;;;;;;5084655;28;20621;-71
2021/05/08 08:38:21;;;;;;;1.63;0.50;;;18.90;60.70;;;;;;5081832;28;20740;-71
2021/05/08 08:40:48;;;;;;;5.17;0.67;;;19.00;60.50;;;;;;5084494;28;20270;-71
2021/05/08 08:43:15;;;;;;;3.20;0.90;;;19.00;60.80;;;;;;5085944;28;20597;-71
2021/05/08 08:45:43;;;;;;;1.43;0.70;;;19.00;60.20;;;;;;5081109;28;20261;-71
2021/05/08 08:48:10;;;;;;;6.20;0.70;;;19.10;59.70;;;;;;5078620;28;20225;-71
2021/05/08 08:50:37;;;;;;;2.10;0.50;;;19.20;59.70;;;;;;5081176;28;20210;-71
2021/05/08 08:53:05;;;;;;;1.37;0.47;;;19.20;59.80;;;;;;5085093;28;20209;-71
2021/05/08 08:55:36;;;;;;;2.50;0.63;;;19.30;59.20;;;;;;5083254;28;20645;-71
2021/05/08 08:58:05;;;;;;;4.13;1.07;;;19.40;59.40;;;;;;5082319;28;20253;-71
2021/05/08 09:00:32;;;;;;;2.40;0.53;;;19.50;59.30;;;;;;5083704;28;20593;-71
2021/05/08 09:03:00;;;;;;;1.60;0.57;;;19.50;58.20;;;;;;5079063;28;20210;-73
2021/05/08 09:05:27;;;;;;;1.67;1.03;;;19.50;58.90;;;;;;5083128;28;20220;-73
2021/05/08 09:08:08;;;;;;;3.00;0.83;;;19.60;58.00;;;;;;5081753;28;20237;-73
2021/05/08 09:10:35;;;;;;;1.40;0.60;;;19.60;58.60;;;;;;5081028;28;20279;-73
2021/05/08 09:13:04;;;;;;;4.97;1.00;;;19.60;58.30;;;;;;5082628;28;20211;-71
2021/05/08 09:15:35;;;;;;;0.90;0.80;;;19.70;59.00;;;;;;5080852;28;20206;-72
2021/05/08 09:18:03;;;;;;;1.23;0.50;;;19.90;58.40;;;;;;5082355;28;20230;-71
2021/05/08 09:20:44;;;;;;;5.40;0.70;;;20.00;58.30;;;;;;5076307;28;20249;-71
2021/05/08 09:23:19;;;;;;;5.97;1.50;;;20.20;57.40;;;;;;5080045;28;20300;-71
2021/05/08 09:25:58;;;;;;;3.13;0.97;;;20.30;57.60;;;;;;5081444;28;20221;-71
2021/05/08 09:28:28;;;;;;;0.73;0.57;;;20.40;56.60;;;;;;5077198;28;20237;-71
2021/05/08 09:30:55;;;;;;;9.03;1.00;;;20.50;56.40;;;;;;5083229;28;20213;-71
2021/05/08 09:33:24;;;;;;;2.13;0.57;;;20.70;56.40;;;;;;5080116;28;20683;-71
2021/05/08 09:36:03;;;;;;;2.80;0.80;;;21.00;55.40;;;;;;5077816;28;20321;-71
2021/05/08 09:38:32;;;;;;;2.70;0.97;;;21.20;54.80;;;;;;5080695;28;20228;-71
2021/05/08 09:41:00;;;;;;;1.73;0.50;;;21.50;54.60;;;;;;5081936;28;20213;-71
2021/05/08 09:43:27;;;;;;;1.33;0.60;;;21.90;53.90;;;;;;5080959;28;20290;-71
2021/05/08 09:45:54;;;;;;;3.03;0.90;;;22.10;53.10;;;;;;5080081;28;20241;-71
2021/05/08 09:48:32;;;;;;;2.57;0.53;;;22.30;52.30;;;;;;5082788;28;20229;-71
2021/05/08 09:51:25;;;;;;;1.23;0.70;;;22.50;49.30;;;;;;5076614;28;20210;-71
2021/05/08 09:54:03;;;;;;;4.83;0.70;;;22.70;49.00;;;;;;5080456;28;20875;-71
2021/05/08 09:56:44;;;;;;;1.00;0.53;;;22.60;49.90;;;;;;5078156;28;20629;-71
2021/05/08 09:59:26;;;;;;;2.13;0.40;;;22.60;48.60;;;;;;5080008;28;20296;-71
2021/05/08 10:02:03;;;;;;;2.37;0.60;;;22.40;48.90;;;;;;5074144;28;20530;-71
2021/05/08 10:04:37;;;;;;;4.63;0.53;;;22.20;48.50;;;;;;5078598;28;20213;-71
2021/05/08 10:07:21;;;;;;;4.17;0.40;;;22.00;49.00;;;;;;5081939;28;20209;-71
2021/05/08 10:09:51;;;;;;;1.87;0.47;;;22.00;50.80;;;;;;5082792;28;20291;-71
2021/05/08 10:12:22;;;;;;;2.47;0.50;;;22.30;49.10;;;;;;5086596;28;20221;-72
2021/05/08 10:14:50;;;;;;;2.63;0.80;;;22.50;47.80;;;;;;5082209;28;20522;-72
2021/05/08 10:17:19;;;;;;;0.97;0.53;;;22.70;47.50;;;;;;5085310;28;20266;-72
2021/05/08 10:19:48;;;;;;;2.77;1.00;;;23.10;47.90;;;;;;5084868;28;20217;-72
2021/05/08 10:22:16;;;;;;;0.83;0.60;;;23.30;47.30;;;;;;5086023;28;20290;-73
2021/05/08 10:24:47;;;;;;;1.20;0.50;;;23.30;46.60;;;;;;5084501;28;20221;-73
2021/05/08 10:27:15;;;;;;;0.87;0.63;;;23.20;46.70;;;;;;5087020;28;20212;-73
2021/05/08 10:29:50;;;;;;;2.90;0.50;;;23.20;46.90;;;;;;5083914;28;20271;-73
2021/05/08 10:32:19;;;;;;;3.47;0.50;;;23.40;47.00;;;;;;5078346;28;20269;-73
2021/05/08 10:34:58;;;;;;;1.50;0.60;;;23.80;47.10;;;;;;5083048;28;20267;-72
2021/05/08 10:37:26;;;;;;;1.07;0.60;;;24.10;45.80;;;;;;5085214;28;20460;-72
2021/05/08 10:40:05;;;;;;;2.63;0.60;;;24.30;45.30;;;;;;5085859;28;20245;-72
2021/05/08 10:42:31;;;;;;;2.33;0.73;;;24.30;44.90;;;;;;5082238;28;20210;-72
2021/05/08 10:45:00;;;;;;;1.60;0.60;;;24.30;45.00;;;;;;5091024;28;20244;-72
2021/05/08 10:47:52;;;;;;;1.53;0.53;;;24.30;44.70;;;;;;5083899;28;20293;-72
2021/05/08 10:50:24;;;;;;;1.40;0.57;;;24.40;43.90;;;;;;5086233;28;20209;-72
2021/05/08 10:53:14;;;;;;;2.73;0.53;;;24.50;44.20;;;;;;5074987;28;20323;-72
2021/05/08 10:55:47;;;;;;;4.43;0.60;;;24.80;44.30;;;;;;5086254;28;20237;-71
2021/05/08 10:58:17;;;;;;;1.20;0.43;;;24.80;43.40;;;;;;5079689;28;20213;-72
2021/05/08 11:00:57;;;;;;;0.53;0.47;;;24.70;42.20;;;;;;5077919;28;20217;-72
2021/05/08 11:03:24;;;;;;;2.17;0.60;;;24.30;42.80;;;;;;5082610;28;20252;-72
2021/05/08 11:06:04;;;;;;;1.93;0.90;;;24.20;43.80;;;;;;5084956;28;20657;-72
2021/05/08 11:08:30;;;;;;;1.33;0.60;;;24.30;44.90;;;;;;5085245;28;20236;-72
2021/05/08 11:11:02;;;;;;;2.00;0.60;;;24.20;43.80;;;;;;5083538;28;20209;-73
2021/05/08 11:13:53;;;;;;;4.63;0.80;;;24.00;43.90;;;;;;5079068;28;20271;-73
2021/05/08 11:16:24;;;;;;;2.87;0.60;;;23.90;44.20;;;;;;5082790;28;20197;-74
2021/05/08 11:18:55;;;;;;;1.50;0.50;;;23.90;43.70;;;;;;5082315;28;20270;-74
2021/05/08 11:21:29;;;;;;;3.30;0.50;;;23.80;43.40;;;;;;5086336;28;20311;-74
2021/05/08 11:24:08;;;;;;;1.33;0.60;;;23.70;44.40;;;;;;5082583;28;20232;-74
2021/05/08 11:26:41;;;;;;;1.90;0.77;;;23.70;45.40;;;;;;5085445;28;20213;-73
2021/05/08 11:29:16;;;;;;;3.97;1.00;;;23.80;45.30;;;;;;5081198;28;20243;-74
2021/05/08 11:31:47;;;;;;;2.20;0.40;;;23.90;45.40;;;;;;5086587;28;20632;-74
2021/05/08 11:34:24;;;;;;;1.70;0.70;;;24.10;45.70;;;;;;5079988;28;20626;-74
2021/05/08 11:36:59;;;;;;;3.07;0.53;;;24.40;45.40;;;;;;5078764;28;20305;-74
2021/05/08 11:39:33;;;;;;;3.77;0.93;;;24.60;44.30;;;;;;5084887;28;20216;-74
2021/05/08 11:42:01;;;;;;;1.87;0.70;;;24.80;44.60;;;;;;5077965;28;20296;-74
2021/05/08 11:44:31;;;;;;;2.20;0.60;;;25.00;43.30;;;;;;5078599;28;20210;-77
2021/05/08 11:47:01;;;;;;;1.40;0.50;;;25.20;43.50;;;;;;5084375;28;20357;-74
2021/05/08 11:49:53;;;;;;;2.50;0.60;;;25.00;43.30;;;;;;5081633;28;20685;-74
2021/05/08 11:52:40;;;;;;;5.53;0.70;;;25.00;43.90;;;;;;5056152;28;20206;-74
2021/05/08 11:55:21;;;;;;;3.50;0.80;;;25.30;44.20;;;;;;5060179;28;20206;-74
2021/05/08 11:57:55;;;;;;;2.53;0.73;;;25.40;44.60;;;;;;5057233;28;20257;-74
2021/05/08 12:00:26;;;;;;;1.77;0.70;;;25.50;44.20;;;;;;5061882;28;20213;-74
2021/05/08 12:03:15;;;;;;;2.53;0.63;;;25.70;42.40;;;;;;5058947;28;20601;-74
2021/05/08 12:05:48;;;;;;;1.03;0.77;;;25.40;41.80;;;;;;5043369;28;20211;-74
2021/05/08 12:08:17;;;;;;;0.93;0.50;;;25.10;43.20;;;;;;5058030;28;20580;-74
2021/05/08 12:10:45;;;;;;;3.33;0.80;;;25.00;43.60;;;;;;5045502;28;20214;-74
2021/05/08 12:13:12;;;;;;;1.93;0.87;;;25.00;44.20;;;;;;5061785;28;20264;-74
2021/05/08 12:15:42;;;;;;;4.67;0.73;;;25.10;43.50;;;;;;5061236;28;20210;-74
2021/05/08 12:18:10;;;;;;;0.83;0.50;;;25.10;43.50;;;;;;5045604;28;20364;-75
2021/05/08 12:20:40;;;;;;;0.90;0.70;;;25.00;44.60;;;;;;5060589;28;20249;-74
2021/05/08 12:23:11;;;;;;;3.60;0.70;;;25.10;44.30;;;;;;5060893;28;20846;-74
2021/05/08 12:25:38;;;;;;;3.20;0.80;;;25.00;43.00;;;;;;5081092;28;20651;-74
2021/05/08 12:28:25;;;;;;;1.17;0.83;;;24.50;42.90;;;;;;5084977;28;20531;-75
2021/05/08 12:30:52;;;;;;;3.67;0.83;;;24.10;45.10;;;;;;5081479;28;20244;-74
2021/05/08 12:33:21;;;;;;;1.80;0.70;;;24.30;45.50;;;;;;5080395;28;20653;-74
2021/05/08 12:35:48;;;;;;;2.47;0.77;;;24.50;45.20;;;;;;5082174;28;20212;-74
2021/05/08 12:38:21;;;;;;;0.63;0.63;;;24.80;44.10;;;;;;5083177;28;20270;-74
2021/05/08 12:40:48;;;;;;;3.17;0.70;;;25.00;42.80;;;;;;5081551;28;20213;-74
2021/05/08 12:43:30;;;;;;;1.60;0.97;;;24.80;43.30;;;;;;5081564;28;20225;-74
2021/05/08 12:46:11;;;;;;;4.30;1.00;;;24.70;44.20;;;;;;5079002;28;20221;-74
2021/05/08 12:48:40;;;;;;;4.00;0.83;;;24.60;44.70;;;;;;5080024;28;20298;-74
2021/05/08 12:51:30;;;;;;;2.27;0.73;;;24.70;45.10;;;;;;5082428;28;20304;-74
2021/05/08 12:54:19;;;;;;;1.83;0.77;;;24.80;44.50;;;;;;5081698;28;20233;-74
2021/05/08 12:56:48;;;;;;;2.27;0.80;;;24.70;44.20;;;;;;5082990;28;20209;-72